createdAt,value
2017-10-13T00:00:04.153Z,0
2017-10-13T00:00:44.595Z,0
2017-10-13T00:01:25.042Z,0
2017-10-13T00:02:05.418Z,0
2017-10-13T00:02:45.936Z,0
2017-10-13T00:03:26.424Z,0
2017-10-13T00:04:06.800Z,0
2017-10-13T00:04:47.225Z,0
2017-10-13T00:05:27.556Z,0
2017-10-13T00:06:08.042Z,0
2017-10-13T00:06:48.473Z,0
2017-10-13T00:07:28.901Z,0
2017-10-13T00:08:09.318Z,0
2017-10-13T00:08:49.646Z,0
2017-10-13T00:09:30.225Z,0
2017-10-13T00:10:10.496Z,0
2017-10-13T00:10:50.979Z,0
2017-10-13T00:11:31.536Z,0
2017-10-13T00:12:11.978Z,0
2017-10-13T00:12:52.403Z,0
2017-10-13T00:13:32.778Z,0
2017-10-13T00:14:13.308Z,0
2017-10-13T00:14:53.724Z,0
2017-10-13T00:15:34.107Z,0
2017-10-13T00:16:14.659Z,0
2017-10-13T00:16:55.176Z,0
2017-10-13T00:17:35.600Z,0
2017-10-13T00:18:16.006Z,0
2017-10-13T00:18:56.595Z,0
2017-10-13T00:19:36.946Z,0
2017-10-13T00:20:17.393Z,0
2017-10-13T00:20:57.808Z,0
2017-10-13T00:21:38.346Z,0
2017-10-13T00:22:18.753Z,0
2017-10-13T00:22:59.189Z,0
2017-10-13T00:23:39.581Z,0
2017-10-13T00:24:19.988Z,0
2017-10-13T00:25:00.425Z,0
2017-10-13T00:25:40.782Z,0
2017-10-13T00:26:21.192Z,0
2017-10-13T00:27:01.720Z,0
2017-10-13T00:27:42.232Z,0
2017-10-13T00:28:22.618Z,0
2017-10-13T00:29:02.990Z,0
2017-10-13T00:29:43.384Z,0
2017-10-13T00:30:23.790Z,0
2017-10-13T00:31:04.215Z,0
2017-10-13T00:31:44.546Z,0
2017-10-13T00:32:25.063Z,0
2017-10-13T00:33:05.618Z,0
2017-10-13T00:33:45.918Z,0
2017-10-13T00:34:26.426Z,0
2017-10-13T00:35:07.018Z,0
2017-10-13T00:35:47.628Z,0
2017-10-13T00:36:27.948Z,0
2017-10-13T00:37:08.346Z,0
2017-10-13T00:37:48.848Z,0
2017-10-13T00:38:29.211Z,0
2017-10-13T00:39:09.605Z,0
2017-10-13T00:39:50.046Z,0
2017-10-13T00:40:30.538Z,0
2017-10-13T00:41:10.952Z,0
2017-10-13T00:41:51.365Z,0
2017-10-13T00:42:31.778Z,0
2017-10-13T00:43:12.286Z,0
2017-10-13T00:43:52.647Z,0
2017-10-13T00:44:33.058Z,0
2017-10-13T00:45:13.505Z,0
2017-10-13T00:45:53.913Z,0
2017-10-13T00:46:34.418Z,0
2017-10-13T00:47:14.830Z,0
2017-10-13T00:47:55.263Z,0
2017-10-13T00:48:35.727Z,0
2017-10-13T00:49:16.100Z,0
2017-10-13T00:49:56.578Z,0
2017-10-13T00:50:37.072Z,0
2017-10-13T00:51:17.467Z,0
2017-10-13T00:51:57.848Z,0
2017-10-13T00:52:38.266Z,0
2017-10-13T00:53:18.764Z,0
2017-10-13T00:53:59.168Z,0
2017-10-13T00:54:39.551Z,0
2017-10-13T00:55:20.054Z,0
2017-10-13T00:56:00.455Z,0
2017-10-13T00:56:40.812Z,0
2017-10-13T00:57:21.251Z,0
2017-10-13T00:58:01.688Z,0
2017-10-13T00:58:42.076Z,0
2017-10-13T00:59:22.560Z,0
2017-10-13T01:00:02.996Z,0
2017-10-13T01:00:43.387Z,0
2017-10-13T01:01:23.805Z,0
2017-10-13T01:02:04.376Z,0
2017-10-13T01:02:44.905Z,0
2017-10-13T01:03:25.278Z,0
2017-10-13T01:04:05.666Z,0
2017-10-13T01:04:46.192Z,0
2017-10-13T01:05:26.610Z,0
2017-10-13T01:06:06.982Z,0
2017-10-13T01:06:47.425Z,0
2017-10-13T01:07:27.864Z,0
2017-10-13T01:08:08.399Z,0
2017-10-13T01:08:48.824Z,0
2017-10-13T01:09:29.253Z,0
2017-10-13T01:10:09.632Z,0
2017-10-13T01:10:50.092Z,0
2017-10-13T01:11:30.511Z,0
2017-10-13T01:12:10.899Z,0
2017-10-13T01:12:51.386Z,0
2017-10-13T01:13:31.836Z,0
2017-10-13T01:14:12.155Z,0
2017-10-13T01:14:52.642Z,0
2017-10-13T01:15:32.977Z,0
2017-10-13T01:16:13.388Z,0
2017-10-13T01:16:53.772Z,0
2017-10-13T01:17:34.255Z,0
2017-10-13T01:18:14.622Z,0
2017-10-13T01:18:55.026Z,0
2017-10-13T01:19:35.507Z,0
2017-10-13T01:20:15.955Z,0
2017-10-13T01:20:56.474Z,0
2017-10-13T01:21:36.814Z,0
2017-10-13T01:22:17.274Z,0
2017-10-13T01:22:57.652Z,0
2017-10-13T01:23:38.189Z,0
2017-10-13T01:24:18.793Z,0
2017-10-13T01:24:59.251Z,0
2017-10-13T01:25:39.581Z,0
2017-10-13T01:26:20.039Z,0
2017-10-13T01:27:00.478Z,0
2017-10-13T01:27:40.825Z,0
2017-10-13T01:28:21.195Z,0
2017-10-13T01:29:01.732Z,0
2017-10-13T01:29:42.087Z,0
2017-10-13T01:30:22.483Z,0
2017-10-13T01:31:02.942Z,0
2017-10-13T01:31:43.425Z,0
2017-10-13T01:32:23.845Z,0
2017-10-13T01:33:04.245Z,0
2017-10-13T01:33:44.725Z,0
2017-10-13T01:34:25.119Z,0
2017-10-13T01:35:05.453Z,0
2017-10-13T01:35:45.983Z,0
2017-10-13T01:36:26.466Z,0
2017-10-13T01:37:06.869Z,0
2017-10-13T01:37:47.363Z,0
2017-10-13T01:38:27.859Z,0
2017-10-13T01:39:08.303Z,0
2017-10-13T01:39:48.749Z,0
2017-10-13T01:40:29.203Z,0
2017-10-13T01:41:09.574Z,0
2017-10-13T01:41:50.070Z,0
2017-10-13T01:42:30.465Z,0
2017-10-13T01:43:10.902Z,0
2017-10-13T01:43:51.275Z,0
2017-10-13T01:44:31.690Z,0
2017-10-13T01:45:12.159Z,0
2017-10-13T01:45:52.642Z,0
2017-10-13T01:46:33.094Z,0
2017-10-13T01:47:13.497Z,0
2017-10-13T01:47:53.935Z,0
2017-10-13T01:48:34.298Z,0
2017-10-13T01:49:14.737Z,0
2017-10-13T01:49:55.209Z,0
2017-10-13T01:50:35.682Z,0
2017-10-13T01:51:16.108Z,0
2017-10-13T01:51:56.556Z,0
2017-10-13T01:52:36.986Z,0
2017-10-13T01:53:17.344Z,0
2017-10-13T01:53:57.783Z,0
2017-10-13T01:54:38.237Z,0
2017-10-13T01:55:18.671Z,0
2017-10-13T01:55:59.087Z,0
2017-10-13T01:56:39.451Z,0
2017-10-13T01:57:19.798Z,0
2017-10-13T01:58:00.253Z,0
2017-10-13T01:58:40.698Z,0
2017-10-13T01:59:21.065Z,0
2017-10-13T02:00:01.458Z,0
2017-10-13T02:00:41.951Z,0
2017-10-13T02:01:22.430Z,0
2017-10-13T02:02:02.849Z,0
2017-10-13T02:02:43.289Z,0
2017-10-13T02:03:23.744Z,0
2017-10-13T02:04:04.111Z,0
2017-10-13T02:04:44.541Z,0
2017-10-13T02:05:24.998Z,0
2017-10-13T02:06:05.425Z,0
2017-10-13T02:06:45.782Z,0
2017-10-13T02:07:26.128Z,0
2017-10-13T02:08:06.645Z,0
2017-10-13T02:08:46.917Z,0
2017-10-13T02:09:27.334Z,0
2017-10-13T02:10:07.756Z,0
2017-10-13T02:10:48.146Z,0
2017-10-13T02:11:28.632Z,0
2017-10-13T02:12:08.995Z,0
2017-10-13T02:12:49.353Z,0
2017-10-13T02:13:29.830Z,0
2017-10-13T02:14:10.346Z,0
2017-10-13T02:14:50.682Z,0
2017-10-13T02:15:31.121Z,0
2017-10-13T02:16:11.649Z,0
2017-10-13T02:16:52.043Z,0
2017-10-13T02:17:32.493Z,0
2017-10-13T02:18:12.878Z,0
2017-10-13T02:18:53.323Z,0
2017-10-13T02:19:33.638Z,0
2017-10-13T02:20:14.021Z,0
2017-10-13T02:20:54.479Z,0
2017-10-13T02:21:34.956Z,0
2017-10-13T02:22:15.867Z,0
2017-10-13T02:22:56.275Z,0
2017-10-13T02:23:36.668Z,0
2017-10-13T02:24:17.153Z,0
2017-10-13T02:24:57.570Z,0
2017-10-13T02:25:37.866Z,0
2017-10-13T02:26:18.369Z,0
2017-10-13T02:26:58.695Z,0
2017-10-13T02:27:39.110Z,0
2017-10-13T02:28:19.495Z,0
2017-10-13T02:28:59.895Z,0
2017-10-13T02:29:40.324Z,0
2017-10-13T02:30:20.747Z,0
2017-10-13T02:31:01.191Z,0
2017-10-13T02:31:41.648Z,0
2017-10-13T02:32:22.027Z,0
2017-10-13T02:33:02.440Z,0
2017-10-13T02:33:42.845Z,0
2017-10-13T02:34:23.337Z,0
2017-10-13T02:35:03.781Z,0
2017-10-13T02:35:44.251Z,0
2017-10-13T02:36:24.696Z,0
2017-10-13T02:37:05.248Z,0
2017-10-13T02:37:45.694Z,0
2017-10-13T02:38:26.107Z,0
2017-10-13T02:39:06.527Z,0
2017-10-13T02:39:47.077Z,0
2017-10-13T02:40:27.404Z,0
2017-10-13T02:41:07.995Z,0
2017-10-13T02:41:48.417Z,0
2017-10-13T02:42:28.917Z,0
2017-10-13T02:43:09.367Z,0
2017-10-13T02:43:49.841Z,0
2017-10-13T02:44:30.352Z,0
2017-10-13T02:45:10.824Z,0
2017-10-13T02:45:51.201Z,0
2017-10-13T02:46:31.741Z,0
2017-10-13T02:47:12.105Z,0
2017-10-13T02:47:52.481Z,0
2017-10-13T02:48:32.931Z,0
2017-10-13T02:49:13.416Z,0
2017-10-13T02:49:53.839Z,0
2017-10-13T02:50:34.281Z,0
2017-10-13T02:51:14.659Z,0
2017-10-13T02:51:55.037Z,0
2017-10-13T02:52:35.436Z,0
2017-10-13T02:53:15.828Z,0
2017-10-13T02:53:56.307Z,0
2017-10-13T02:54:36.652Z,0
2017-10-13T02:55:17.023Z,0
2017-10-13T02:55:57.478Z,0
2017-10-13T02:56:37.844Z,0
2017-10-13T02:57:18.284Z,0
2017-10-13T02:57:58.656Z,0
2017-10-13T02:58:39.093Z,0
2017-10-13T02:59:19.606Z,0
2017-10-13T03:00:00.063Z,0
2017-10-13T03:00:40.458Z,0
2017-10-13T03:01:20.941Z,0
2017-10-13T03:02:01.430Z,0
2017-10-13T03:02:41.812Z,0
2017-10-13T03:03:22.259Z,0
2017-10-13T03:04:02.660Z,0
2017-10-13T03:04:43.084Z,0
2017-10-13T03:05:23.493Z,0
2017-10-13T03:06:03.971Z,0
2017-10-13T03:06:44.343Z,0
2017-10-13T03:07:24.783Z,0
2017-10-13T03:08:05.249Z,0
2017-10-13T03:08:45.607Z,0
2017-10-13T03:09:26.115Z,0
2017-10-13T03:10:06.586Z,0
2017-10-13T03:10:46.941Z,0
2017-10-13T03:11:27.358Z,0
2017-10-13T03:12:07.861Z,0
2017-10-13T03:12:48.330Z,0
2017-10-13T03:13:28.721Z,0
2017-10-13T03:14:09.145Z,0
2017-10-13T03:14:49.554Z,0
2017-10-13T03:15:29.950Z,0
2017-10-13T03:16:10.363Z,0
2017-10-13T03:16:51.015Z,0
2017-10-13T03:17:31.435Z,0
2017-10-13T03:18:11.887Z,0
2017-10-13T03:18:52.311Z,0
2017-10-13T03:19:32.750Z,0
2017-10-13T03:20:13.107Z,0
2017-10-13T03:20:53.595Z,0
2017-10-13T03:21:34.017Z,0
2017-10-13T03:22:14.445Z,0
2017-10-13T03:22:55.038Z,0
2017-10-13T03:23:35.560Z,0
2017-10-13T03:24:15.908Z,0
2017-10-13T03:24:56.339Z,0
2017-10-13T03:25:36.707Z,0
2017-10-13T03:26:17.130Z,0
2017-10-13T03:26:57.564Z,0
2017-10-13T03:27:38.025Z,0
2017-10-13T03:28:18.460Z,0
2017-10-13T03:28:58.757Z,0
2017-10-13T03:29:39.325Z,0
2017-10-13T03:30:19.776Z,0
2017-10-13T03:31:00.128Z,0
2017-10-13T03:31:40.606Z,0
2017-10-13T03:32:20.952Z,0
2017-10-13T03:33:01.410Z,0
2017-10-13T03:33:41.885Z,0
2017-10-13T03:34:22.322Z,0
2017-10-13T03:35:02.740Z,0
2017-10-13T03:35:43.131Z,0
2017-10-13T03:36:23.565Z,0
2017-10-13T03:37:03.908Z,0
2017-10-13T03:37:44.291Z,0
2017-10-13T03:38:24.781Z,0
2017-10-13T03:39:05.132Z,0
2017-10-13T03:39:45.530Z,0
2017-10-13T03:40:25.980Z,0
2017-10-13T03:41:06.413Z,0
2017-10-13T03:41:46.879Z,0
2017-10-13T03:42:27.331Z,0
2017-10-13T03:43:07.710Z,0
2017-10-13T03:43:48.042Z,0
2017-10-13T03:44:28.598Z,0
2017-10-13T03:45:09.012Z,0
2017-10-13T03:45:49.410Z,0
2017-10-13T03:46:29.821Z,0
2017-10-13T03:47:10.309Z,0
2017-10-13T03:47:50.673Z,0
2017-10-13T03:48:31.186Z,0
2017-10-13T03:49:11.552Z,0
2017-10-13T03:49:51.941Z,0
2017-10-13T03:50:32.359Z,0
2017-10-13T03:51:12.708Z,0
2017-10-13T03:51:53.225Z,0
2017-10-13T03:52:33.587Z,0
2017-10-13T03:53:13.930Z,0
2017-10-13T03:53:54.681Z,0
2017-10-13T03:54:35.215Z,0
2017-10-13T03:55:15.911Z,0
2017-10-13T03:55:56.277Z,0
2017-10-13T03:56:36.664Z,0
2017-10-13T03:57:17.041Z,0
2017-10-13T03:57:57.477Z,0
2017-10-13T03:58:37.899Z,0
2017-10-13T03:59:18.295Z,0
2017-10-13T03:59:58.695Z,0
2017-10-13T04:00:39.245Z,0
2017-10-13T04:01:19.638Z,0
2017-10-13T04:02:00.082Z,0
2017-10-13T04:02:40.495Z,0
2017-10-13T04:03:20.951Z,0
2017-10-13T04:04:01.328Z,0
2017-10-13T04:04:41.805Z,0
2017-10-13T04:05:22.208Z,0
2017-10-13T04:06:02.667Z,0
2017-10-13T04:06:43.096Z,0
2017-10-13T04:07:23.601Z,0
2017-10-13T04:08:04.206Z,0
2017-10-13T04:08:44.588Z,0
2017-10-13T04:09:24.990Z,0
2017-10-13T04:10:05.609Z,0
2017-10-13T04:10:46.220Z,0
2017-10-13T04:11:26.805Z,0
2017-10-13T04:12:07.088Z,0
2017-10-13T04:12:47.625Z,0
2017-10-13T04:13:27.905Z,0
2017-10-13T04:14:08.363Z,0
2017-10-13T04:14:48.895Z,0
2017-10-13T04:15:29.482Z,0
2017-10-13T04:16:09.835Z,0
2017-10-13T04:16:50.317Z,0
2017-10-13T04:17:30.884Z,0
2017-10-13T04:18:11.179Z,0
2017-10-13T04:18:52.043Z,0
2017-10-13T04:19:32.493Z,0
2017-10-13T04:20:13.187Z,0
2017-10-13T04:20:53.680Z,0
2017-10-13T04:21:33.927Z,0
2017-10-13T04:22:14.420Z,0
2017-10-13T04:22:55.585Z,0
2017-10-13T04:23:36.263Z,0
2017-10-13T04:24:16.650Z,0
2017-10-13T04:24:57.471Z,0
2017-10-13T04:25:38.204Z,0
2017-10-13T04:26:18.584Z,0
2017-10-13T04:26:59.014Z,0
2017-10-13T04:27:39.644Z,0
2017-10-13T04:28:20.098Z,0
2017-10-13T04:29:00.640Z,0
2017-10-13T04:29:41.181Z,0
2017-10-13T04:30:21.508Z,0
2017-10-13T04:31:01.940Z,0
2017-10-13T04:31:42.354Z,0
2017-10-13T04:32:22.797Z,0
2017-10-13T04:33:03.298Z,0
2017-10-13T04:33:43.729Z,0
2017-10-13T04:34:24.160Z,0
2017-10-13T04:35:04.511Z,0
2017-10-13T04:35:44.982Z,0
2017-10-13T04:36:25.396Z,0
2017-10-13T04:37:05.811Z,0
2017-10-13T04:37:46.278Z,0
2017-10-13T04:38:26.585Z,0
2017-10-13T04:39:07.006Z,0
2017-10-13T04:39:47.420Z,0
2017-10-13T04:40:27.788Z,0
2017-10-13T04:41:08.372Z,0
2017-10-13T04:41:48.790Z,0
2017-10-13T04:42:29.161Z,0
2017-10-13T04:43:09.714Z,0
2017-10-13T04:43:50.227Z,0
2017-10-13T04:44:30.586Z,0
2017-10-13T04:45:11.072Z,0
2017-10-13T04:45:51.719Z,0
2017-10-13T04:46:32.247Z,0
2017-10-13T04:47:12.784Z,0
2017-10-13T04:47:53.126Z,0
2017-10-13T04:48:33.610Z,0
2017-10-13T04:49:14.000Z,0
2017-10-13T04:49:54.367Z,0
2017-10-13T04:50:34.846Z,0
2017-10-13T04:51:15.297Z,0
2017-10-13T04:51:55.732Z,0
2017-10-13T04:52:36.204Z,0
2017-10-13T04:53:16.658Z,0
2017-10-13T04:53:57.204Z,0
2017-10-13T04:54:37.591Z,0
2017-10-13T04:55:18.066Z,0
2017-10-13T04:55:58.437Z,0
2017-10-13T04:56:38.920Z,0
2017-10-13T04:57:19.400Z,0
2017-10-13T04:57:59.933Z,0
2017-10-13T04:58:40.326Z,0
2017-10-13T04:59:20.760Z,0
2017-10-13T05:00:01.121Z,0
2017-10-13T05:00:41.549Z,0
2017-10-13T05:01:21.980Z,0
2017-10-13T05:02:02.378Z,0
2017-10-13T05:02:42.766Z,0
2017-10-13T05:03:23.311Z,0
2017-10-13T05:04:03.621Z,0
2017-10-13T05:04:44.171Z,0
2017-10-13T05:05:24.571Z,0
2017-10-13T05:06:05.015Z,0
2017-10-13T05:06:45.495Z,0
2017-10-13T05:07:25.849Z,0
2017-10-13T05:08:06.484Z,0
2017-10-13T05:08:46.818Z,0
2017-10-13T05:09:27.434Z,0
2017-10-13T05:10:07.859Z,0
2017-10-13T05:10:48.299Z,0
2017-10-13T05:11:28.707Z,0
2017-10-13T05:12:09.144Z,0
2017-10-13T05:12:49.522Z,0
2017-10-13T05:13:29.926Z,0
2017-10-13T05:14:10.388Z,0
2017-10-13T05:14:50.926Z,0
2017-10-13T05:15:31.408Z,0
2017-10-13T05:16:11.861Z,0
2017-10-13T05:16:52.221Z,0
2017-10-13T05:17:32.677Z,0
2017-10-13T05:18:13.199Z,0
2017-10-13T05:18:53.606Z,0
2017-10-13T05:19:34.071Z,0
2017-10-13T05:20:14.444Z,0
2017-10-13T05:20:54.882Z,0
2017-10-13T05:21:35.274Z,0
2017-10-13T05:22:15.713Z,0
2017-10-13T05:22:56.115Z,0
2017-10-13T05:23:36.572Z,0
2017-10-13T05:24:16.911Z,0
2017-10-13T05:24:57.370Z,0
2017-10-13T05:25:37.992Z,0
2017-10-13T05:26:18.481Z,0
2017-10-13T05:26:58.928Z,0
2017-10-13T05:27:39.393Z,0
2017-10-13T05:28:19.874Z,0
2017-10-13T05:29:00.534Z,0
2017-10-13T05:29:40.933Z,0
2017-10-13T05:30:21.326Z,0
2017-10-13T05:31:01.841Z,0
2017-10-13T05:31:42.377Z,0
2017-10-13T05:32:22.783Z,0
2017-10-13T05:33:03.196Z,0
2017-10-13T05:33:43.703Z,0
2017-10-13T05:34:24.169Z,0
2017-10-13T05:35:04.542Z,0
2017-10-13T05:35:44.897Z,0
2017-10-13T05:36:25.500Z,0
2017-10-13T05:37:06.041Z,0
2017-10-13T05:37:46.519Z,0
2017-10-13T05:38:26.862Z,0
2017-10-13T05:39:07.312Z,0
2017-10-13T05:39:47.757Z,0
2017-10-13T05:40:28.297Z,0
2017-10-13T05:41:08.734Z,0
2017-10-13T05:41:49.159Z,0
2017-10-13T05:42:29.607Z,0
2017-10-13T05:43:09.985Z,0
2017-10-13T05:43:50.366Z,0
2017-10-13T05:44:30.750Z,0
2017-10-13T05:45:11.217Z,0
2017-10-13T05:45:51.805Z,0
2017-10-13T05:46:32.206Z,0
2017-10-13T05:47:12.676Z,0
2017-10-13T05:47:53.076Z,0
2017-10-13T05:48:33.477Z,0
2017-10-13T05:49:13.852Z,0
2017-10-13T05:49:54.353Z,0
2017-10-13T05:50:34.711Z,0
2017-10-13T05:51:15.247Z,0
2017-10-13T05:51:55.644Z,0
2017-10-13T05:52:36.041Z,0
2017-10-13T05:53:16.585Z,0
2017-10-13T05:53:56.976Z,0
2017-10-13T05:54:37.414Z,0
2017-10-13T05:55:17.789Z,0
2017-10-13T05:55:58.193Z,0
2017-10-13T05:56:38.677Z,0
2017-10-13T05:57:19.207Z,0
2017-10-13T05:57:59.630Z,0
2017-10-13T05:58:40.090Z,0
2017-10-13T05:59:20.623Z,0
2017-10-13T06:00:01.814Z,0
2017-10-13T06:00:42.440Z,0
2017-10-13T06:01:22.786Z,0
2017-10-13T06:02:03.270Z,0
2017-10-13T06:02:43.643Z,0
2017-10-13T06:03:24.180Z,0
2017-10-13T06:04:04.687Z,0
2017-10-13T06:04:45.110Z,0
2017-10-13T06:05:25.511Z,0
2017-10-13T06:06:05.922Z,0
2017-10-13T06:06:46.361Z,0
2017-10-13T06:07:26.756Z,0
2017-10-13T06:08:07.169Z,0
2017-10-13T06:08:47.459Z,0
2017-10-13T06:09:27.871Z,0
2017-10-13T06:10:08.263Z,0
2017-10-13T06:10:48.855Z,0
2017-10-13T06:11:29.203Z,0
2017-10-13T06:12:09.550Z,0
2017-10-13T06:12:50.017Z,0
2017-10-13T06:13:30.387Z,0
2017-10-13T06:14:10.843Z,0
2017-10-13T06:14:51.647Z,0
2017-10-13T06:15:32.122Z,0
2017-10-13T06:16:12.564Z,0
2017-10-13T06:16:52.899Z,0
2017-10-13T06:17:33.428Z,0
2017-10-13T06:18:13.925Z,0
2017-10-13T06:18:54.362Z,0
2017-10-13T06:19:34.900Z,0
2017-10-13T06:20:15.536Z,0
2017-10-13T06:20:55.992Z,0
2017-10-13T06:21:36.472Z,0
2017-10-13T06:22:16.845Z,0
2017-10-13T06:22:57.243Z,0
2017-10-13T06:23:37.605Z,0
2017-10-13T06:24:18.041Z,0
2017-10-13T06:24:58.501Z,0
2017-10-13T06:25:38.924Z,0
2017-10-13T06:26:19.398Z,0
2017-10-13T06:26:59.880Z,0
2017-10-13T06:27:40.374Z,0
2017-10-13T06:28:20.961Z,0
2017-10-13T06:29:01.824Z,0
2017-10-13T06:29:42.261Z,0
2017-10-13T06:30:22.704Z,0
2017-10-13T06:31:03.307Z,0
2017-10-13T06:31:43.803Z,0
2017-10-13T06:32:25.251Z,0
2017-10-13T06:33:05.595Z,0
2017-10-13T06:33:46.163Z,0
2017-10-13T06:34:26.649Z,0
2017-10-13T06:35:07.041Z,0
2017-10-13T06:35:47.514Z,0
2017-10-13T06:36:28.029Z,0
2017-10-13T06:37:08.505Z,0
2017-10-13T06:37:48.984Z,0
2017-10-13T06:38:29.475Z,0
2017-10-13T06:39:09.963Z,0
2017-10-13T06:39:50.390Z,0
2017-10-13T06:40:30.814Z,0
2017-10-13T06:41:11.374Z,0
2017-10-13T06:41:51.907Z,0
2017-10-13T06:42:32.318Z,0
2017-10-13T06:43:12.824Z,0
2017-10-13T06:43:53.294Z,0
2017-10-13T06:44:33.742Z,0
2017-10-13T06:45:14.270Z,0
2017-10-13T06:45:54.672Z,0
2017-10-13T06:46:35.031Z,0
2017-10-13T06:47:15.677Z,0
2017-10-13T06:47:56.048Z,0
2017-10-13T06:48:36.504Z,5
2017-10-13T06:49:16.908Z,5
2017-10-13T06:49:57.403Z,5
2017-10-13T06:50:37.906Z,5
2017-10-13T06:51:19.452Z,10
2017-10-13T06:51:59.218Z,10
2017-10-13T06:52:39.615Z,10
2017-10-13T06:53:20.038Z,10
2017-10-13T06:54:00.424Z,10
2017-10-13T06:54:40.796Z,10
2017-10-13T06:55:21.148Z,10
2017-10-13T06:56:01.770Z,10
2017-10-13T06:56:42.128Z,10
2017-10-13T06:57:22.673Z,10
2017-10-13T06:58:03.057Z,10
2017-10-13T06:58:43.653Z,10
2017-10-13T06:59:24.031Z,10
2017-10-13T07:00:04.457Z,10
2017-10-13T07:00:44.895Z,10
2017-10-13T07:01:25.387Z,15
2017-10-13T07:02:05.903Z,15
2017-10-13T07:02:46.292Z,15
2017-10-13T07:03:26.819Z,10
2017-10-13T07:04:07.183Z,10
2017-10-13T07:04:47.682Z,10
2017-10-13T07:05:28.159Z,10
2017-10-13T07:06:08.587Z,10
2017-10-13T07:06:48.969Z,15
2017-10-13T07:07:29.388Z,10
2017-10-13T07:08:09.937Z,10
2017-10-13T07:08:50.418Z,10
2017-10-13T07:09:30.857Z,10
2017-10-13T07:10:11.251Z,5
2017-10-13T07:10:52.059Z,5
2017-10-13T07:11:32.476Z,5
2017-10-13T07:12:13.030Z,5
2017-10-13T07:12:54.516Z,5
2017-10-13T07:13:34.669Z,5
2017-10-13T07:14:15.256Z,5
2017-10-13T07:14:55.860Z,5
2017-10-13T07:15:36.401Z,5
2017-10-13T07:16:16.880Z,5
2017-10-13T07:16:57.698Z,5
2017-10-13T07:17:37.774Z,5
2017-10-13T07:18:18.232Z,5
2017-10-13T07:18:58.667Z,5
2017-10-13T07:19:39.482Z,5
2017-10-13T07:20:19.751Z,10
2017-10-13T07:21:00.377Z,10
2017-10-13T07:21:40.725Z,10
2017-10-13T07:22:21.158Z,10
2017-10-13T07:23:01.580Z,10
2017-10-13T07:23:41.986Z,10
2017-10-13T07:24:22.365Z,10
2017-10-13T07:25:02.823Z,10
2017-10-13T07:25:43.260Z,10
2017-10-13T07:26:23.575Z,10
2017-10-13T07:27:04.140Z,10
2017-10-13T07:27:44.475Z,5
2017-10-13T07:28:25.022Z,5
2017-10-13T07:29:05.465Z,5
2017-10-13T07:29:45.911Z,5
2017-10-13T07:30:26.354Z,5
2017-10-13T07:31:06.850Z,5
2017-10-13T07:31:47.233Z,5
2017-10-13T07:32:27.814Z,5
2017-10-13T07:33:08.178Z,5
2017-10-13T07:33:48.587Z,5
2017-10-13T07:34:29.088Z,5
2017-10-13T07:35:09.654Z,5
2017-10-13T07:35:50.143Z,10
2017-10-13T07:36:30.543Z,10
2017-10-13T07:37:10.975Z,10
2017-10-13T07:37:51.438Z,10
2017-10-13T07:38:31.994Z,10
2017-10-13T07:39:12.558Z,10
2017-10-13T07:39:53.575Z,5
2017-10-13T07:41:02.656Z,5
2017-10-13T07:41:42.674Z,5
2017-10-13T07:42:23.255Z,5
2017-10-13T07:43:04.534Z,5
2017-10-13T07:43:44.482Z,5
2017-10-13T07:44:25.090Z,5
2017-10-13T07:47:12.736Z,5
2017-10-13T07:47:56.156Z,5
2017-10-13T07:48:40.116Z,5
2017-10-13T07:49:20.962Z,5
2017-10-13T07:50:02.053Z,5
2017-10-13T07:50:43.685Z,5
2017-10-13T07:51:25.528Z,5
2017-10-13T07:52:07.614Z,5
2017-10-13T07:52:51.210Z,10
2017-10-13T07:53:34.187Z,10
2017-10-13T07:54:20.145Z,10
2017-10-13T07:54:58.871Z,10
2017-10-13T07:55:41.845Z,10
2017-10-13T07:56:25.176Z,10
2017-10-13T07:57:06.664Z,10
2017-10-13T07:57:53.779Z,15
2017-10-13T07:58:34.632Z,15
2017-10-13T07:59:17.694Z,20
2017-10-13T08:00:00.061Z,20
2017-10-13T08:00:41.607Z,15
2017-10-13T08:01:22.558Z,15
2017-10-13T08:02:03.179Z,15
2017-10-13T08:02:46.137Z,15
2017-10-13T08:03:27.036Z,15
2017-10-13T08:04:08.598Z,15
2017-10-13T08:04:50.612Z,15
2017-10-13T08:05:30.712Z,15
2017-10-13T08:06:12.593Z,15
2017-10-13T08:06:53.119Z,15
2017-10-13T08:07:35.547Z,15
2017-10-13T08:08:17.188Z,15
2017-10-13T08:08:58.598Z,15
2017-10-13T08:09:39.172Z,15
2017-10-13T08:10:20.718Z,15
2017-10-13T08:11:01.244Z,15
2017-10-13T08:11:41.799Z,15
2017-10-13T08:12:22.470Z,15
2017-10-13T08:13:02.889Z,15
2017-10-13T08:13:43.385Z,10
2017-10-13T08:16:11.358Z,15
2017-10-13T08:17:05.169Z,20
2017-10-13T08:17:57.739Z,25
2017-10-13T08:18:51.701Z,25
2017-10-13T08:19:44.827Z,25
2017-10-13T08:20:37.933Z,30
2017-10-13T08:21:30.668Z,35
2017-10-13T08:22:23.124Z,40
2017-10-13T08:23:13.431Z,45
2017-10-13T08:25:42.620Z,40
2017-10-13T08:26:34.611Z,40
2017-10-13T08:27:25.262Z,40
2017-10-13T08:28:05.389Z,35
2017-10-13T08:28:45.728Z,35
2017-10-13T08:29:26.165Z,35
2017-10-13T08:30:07.397Z,35
2017-10-13T08:30:47.935Z,40
2017-10-13T08:31:28.590Z,40
2017-10-13T08:32:09.621Z,35
2017-10-13T08:32:50.115Z,35
2017-10-13T08:33:30.722Z,35
2017-10-13T08:34:11.126Z,35
2017-10-13T08:34:51.525Z,35
2017-10-13T08:35:32.181Z,35
2017-10-13T08:36:12.527Z,35
2017-10-13T08:36:53.045Z,35
2017-10-13T08:37:33.527Z,35
2017-10-13T08:38:13.965Z,40
2017-10-13T08:38:54.481Z,40
2017-10-13T08:39:34.840Z,45
2017-10-13T08:40:15.388Z,45
2017-10-13T08:40:55.866Z,50
2017-10-13T08:41:36.264Z,50
2017-10-13T08:42:16.685Z,50
2017-10-13T08:42:57.100Z,50
2017-10-13T08:43:37.488Z,50
2017-10-13T08:44:17.981Z,45
2017-10-13T08:44:58.481Z,45
2017-10-13T08:45:38.872Z,45
2017-10-13T08:46:19.443Z,45
2017-10-13T08:46:59.902Z,40
2017-10-13T08:47:40.447Z,35
2017-10-13T08:48:20.839Z,35
2017-10-13T08:49:01.507Z,35
2017-10-13T08:49:41.996Z,35
2017-10-13T08:50:22.448Z,35
2017-10-13T08:51:03.026Z,30
2017-10-13T08:51:43.347Z,25
2017-10-13T08:52:23.982Z,25
2017-10-13T08:53:04.365Z,25
2017-10-13T08:53:44.921Z,20
2017-10-13T08:54:25.327Z,20
2017-10-13T08:55:05.818Z,25
2017-10-13T08:55:46.208Z,25
2017-10-13T08:56:26.738Z,25
2017-10-13T08:57:07.112Z,30
2017-10-13T08:57:47.648Z,30
2017-10-13T08:58:27.886Z,30
2017-10-13T08:59:08.446Z,35
2017-10-13T08:59:48.867Z,35
2017-10-13T09:00:29.362Z,35
2017-10-13T09:01:10.446Z,35
2017-10-13T09:01:50.804Z,40
2017-10-13T09:02:31.669Z,40
2017-10-13T09:03:12.023Z,45
2017-10-13T09:03:53.869Z,40
2017-10-13T09:04:34.222Z,40
2017-10-13T09:05:14.802Z,45
2017-10-13T09:05:55.885Z,45
2017-10-13T09:06:36.327Z,50
2017-10-13T09:07:16.773Z,45
2017-10-13T09:07:57.257Z,45
2017-10-13T09:08:37.807Z,45
2017-10-13T09:09:18.145Z,45
2017-10-13T09:09:58.753Z,45
2017-10-13T09:10:39.565Z,40
2017-10-13T09:11:20.923Z,40
2017-10-13T09:12:01.663Z,40
2017-10-13T09:16:42.712Z,30
2017-10-13T09:17:23.022Z,30
2017-10-13T09:18:03.455Z,30
2017-10-13T09:18:43.851Z,30
2017-10-13T09:19:24.939Z,35
2017-10-13T09:20:05.428Z,35
2017-10-13T09:20:45.931Z,35
2017-10-13T09:21:26.573Z,35
2017-10-13T09:22:06.981Z,35
2017-10-13T09:22:47.411Z,35
2017-10-13T09:23:27.978Z,35
2017-10-13T09:24:08.302Z,35
2017-10-13T09:24:49.043Z,35
2017-10-13T09:25:29.735Z,35
2017-10-13T09:26:10.235Z,35
2017-10-13T09:26:50.700Z,35
2017-10-13T09:27:31.677Z,35
2017-10-13T09:28:11.997Z,35
2017-10-13T09:28:52.758Z,35
2017-10-13T09:29:33.889Z,35
2017-10-13T09:30:14.402Z,35
2017-10-13T09:30:54.885Z,40
2017-10-13T09:31:35.532Z,45
2017-10-13T09:32:16.087Z,45
2017-10-13T09:32:56.622Z,45
2017-10-13T09:33:37.042Z,50
2017-10-13T09:34:17.360Z,45
2017-10-13T09:34:57.923Z,40
2017-10-13T09:35:38.511Z,40
2017-10-13T09:36:18.854Z,35
2017-10-13T09:36:59.467Z,35
2017-10-13T09:37:39.865Z,35
2017-10-13T09:38:20.430Z,40
2017-10-13T09:39:00.834Z,40
2017-10-13T09:39:42.018Z,35
2017-10-13T09:40:22.439Z,35
2017-10-13T09:41:02.790Z,30
2017-10-13T09:41:43.212Z,35
2017-10-13T09:42:23.666Z,35
2017-10-13T09:43:05.457Z,30
2017-10-13T09:43:44.971Z,30
2017-10-13T09:44:25.428Z,25
2017-10-13T09:45:05.878Z,25
2017-10-13T09:45:46.343Z,25
2017-10-13T09:46:26.791Z,20
2017-10-13T09:47:07.249Z,25
2017-10-13T09:47:47.839Z,25
2017-10-13T09:48:28.401Z,25
2017-10-13T09:49:08.846Z,30
2017-10-13T09:49:49.267Z,25
2017-10-13T09:50:29.925Z,25
2017-10-13T09:51:10.257Z,25
2017-10-13T09:51:50.703Z,20
2017-10-13T09:52:31.143Z,20
2017-10-13T09:53:11.715Z,20
2017-10-13T09:53:52.301Z,25
2017-10-13T09:54:32.775Z,25
2017-10-13T09:55:13.293Z,25
2017-10-13T09:55:53.863Z,30
2017-10-13T09:56:34.379Z,35
2017-10-13T09:57:14.777Z,30
2017-10-13T09:57:55.472Z,30
2017-10-13T09:58:35.847Z,30
2017-10-13T09:59:16.222Z,30
2017-10-13T09:59:56.704Z,30
2017-10-13T10:00:37.127Z,30
2017-10-13T10:01:17.679Z,30
2017-10-13T10:01:58.152Z,35
2017-10-13T10:02:38.705Z,30
2017-10-13T10:03:18.999Z,35
2017-10-13T10:03:59.298Z,40
2017-10-13T10:04:39.789Z,40
2017-10-13T10:05:20.198Z,35